sensor_id;sensor_type;location;lat;lon;timestamp;pressure;altitude;pressure_sealevel;temperature;humidity
28588;BME280;15787;49.662;10.162;2023-05-12T00:02:23;98867.56;;;11.67;100.00
28588;BME280;15787;49.662;10.162;2023-05-12T00:04:57;98863.81;;;11.57;100.00
28588;BME280;15787;49.662;10.162;2023-05-12T00:07:30;98867.16;;;11.68;100.00
28588;BME280;15787;49.662;10.162;2023-05-12T00:10:04;98863.16;;;11.82;100.00
28588;BME280;15787;49.662;10.162;2023-05-12T00:12:37;98860.59;;;11.87;100.00
28588;BME280;15787;49.662;10.162;2023-05-12T00:15:10;98853.69;;;11.92;100.00
28588;BME280;15787;49.662;10.162;2023-05-12T00:17:45;98858.00;;;11.80;100.00
28588;BME280;15787;49.662;10.162;2023-05-12T00:20:18;98870.31;;;11.83;100.00
28588;BME280;15787;49.662;10.162;2023-05-12T00:22:51;98867.06;;;11.56;100.00
28588;BME280;15787;49.662;10.162;2023-05-12T00:25:24;98862.84;;;11.64;100.00
28588;BME280;15787;49.662;10.162;2023-05-12T00:27:57;98859.03;;;11.86;100.00
28588;BME280;15787;49.662;10.162;2023-05-12T00:30:30;98853.22;;;11.93;100.00
28588;BME280;15787;49.662;10.162;2023-05-12T00:33:05;98853.75;;;11.76;100.00
28588;BME280;15787;49.662;10.162;2023-05-12T00:35:38;98854.69;;;11.98;100.00
28588;BME280;15787;49.662;10.162;2023-05-12T00:38:11;98855.69;;;11.91;100.00
28588;BME280;15787;49.662;10.162;2023-05-12T00:40:44;98857.09;;;11.71;100.00
28588;BME280;15787;49.662;10.162;2023-05-12T00:43:18;98855.69;;;11.91;100.00
28588;BME280;15787;49.662;10.162;2023-05-12T00:45:51;98857.91;;;11.84;100.00
28588;BME280;15787;49.662;10.162;2023-05-12T00:48:26;98855.09;;;11.84;100.00
28588;BME280;15787;49.662;10.162;2023-05-12T00:50:59;98849.19;;;11.82;100.00
28588;BME280;15787;49.662;10.162;2023-05-12T00:53:32;98851.97;;;11.82;100.00
28588;BME280;15787;49.662;10.162;2023-05-12T00:56:19;98850.38;;;11.68;100.00
28588;BME280;15787;49.662;10.162;2023-05-12T00:58:52;98850.41;;;11.81;100.00
28588;BME280;15787;49.662;10.162;2023-05-12T01:01:26;98851.75;;;11.89;100.00
28588;BME280;15787;49.662;10.162;2023-05-12T01:04:01;98857.03;;;11.87;100.00
28588;BME280;15787;49.662;10.162;2023-05-12T01:06:44;98851.19;;;11.81;100.00
28588;BME280;15787;49.662;10.162;2023-05-12T01:09:20;98851.50;;;11.71;100.00
28588;BME280;15787;49.662;10.162;2023-05-12T01:11:53;98857.03;;;11.87;100.00
28588;BME280;15787;49.662;10.162;2023-05-12T01:14:27;98853.28;;;11.77;100.00
28588;BME280;15787;49.662;10.162;2023-05-12T01:17:02;98857.25;;;11.64;100.00
28588;BME280;15787;49.662;10.162;2023-05-12T01:19:45;98855.31;;;11.77;100.00
28588;BME280;15787;49.662;10.162;2023-05-12T01:22:19;98852.06;;;11.78;100.00
28588;BME280;15787;49.662;10.162;2023-05-12T01:24:54;98848.41;;;11.94;100.00
28588;BME280;15787;49.662;10.162;2023-05-12T01:27:32;98856.47;;;11.63;100.00
28588;BME280;15787;49.662;10.162;2023-05-12T01:30:07;98854.97;;;11.75;100.00
28588;BME280;15787;49.662;10.162;2023-05-12T01:32:41;98856.00;;;11.81;100.00
28588;BME280;15787;49.662;10.162;2023-05-12T01:35:15;98853.41;;;11.74;100.00
28588;BME280;15787;49.662;10.162;2023-05-12T01:37:55;98856.75;;;11.69;100.00
28588;BME280;15787;49.662;10.162;2023-05-12T01:40:28;98850.69;;;11.41;100.00
28588;BME280;15787;49.662;10.162;2023-05-12T01:43:03;98858.06;;;11.64;100.00
28588;BME280;15787;49.662;10.162;2023-05-12T01:45:36;98851.28;;;11.49;100.00
28588;BME280;15787;49.662;10.162;2023-05-12T01:48:09;98851.94;;;11.69;100.00
28588;BME280;15787;49.662;10.162;2023-05-12T01:50:42;98852.31;;;11.84;100.00
28588;BME280;15787;49.662;10.162;2023-05-12T01:53:20;98851.06;;;11.85;100.00
28588;BME280;15787;49.662;10.162;2023-05-12T01:55:53;98851.63;;;11.51;100.00
28588;BME280;15787;49.662;10.162;2023-05-12T01:58:30;98851.81;;;11.73;100.00
28588;BME280;15787;49.662;10.162;2023-05-12T02:01:03;98861.56;;;11.68;100.00
28588;BME280;15787;49.662;10.162;2023-05-12T02:03:37;98865.13;;;11.69;100.00
28588;BME280;15787;49.662;10.162;2023-05-12T02:06:15;98855.13;;;11.68;100.00
28588;BME280;15787;49.662;10.162;2023-05-12T02:08:48;98858.38;;;11.66;100.00
28588;BME280;15787;49.662;10.162;2023-05-12T02:11:21;98862.75;;;11.67;100.00
28588;BME280;15787;49.662;10.162;2023-05-12T02:13:55;98858.53;;;11.47;100.00
28588;BME280;15787;49.662;10.162;2023-05-12T02:16:29;98858.81;;;11.65;100.00
28588;BME280;15787;49.662;10.162;2023-05-12T02:19:02;98860.41;;;11.66;100.00
28588;BME280;15787;49.662;10.162;2023-05-12T02:21:36;98857.09;;;11.55;100.00
28588;BME280;15787;49.662;10.162;2023-05-12T02:24:09;98861.56;;;11.68;100.00
28588;BME280;15787;49.662;10.162;2023-05-12T02:26:45;98868.34;;;11.67;100.00
28588;BME280;15787;49.662;10.162;2023-05-12T02:29:19;98861.09;;;11.70;100.00
28588;BME280;15787;49.662;10.162;2023-05-12T02:31:53;98859.22;;;11.51;100.00
28588;BME280;15787;49.662;10.162;2023-05-12T02:34:27;98861.56;;;11.68;100.00
28588;BME280;15787;49.662;10.162;2023-05-12T02:37:00;98862.22;;;11.72;100.00
28588;BME280;15787;49.662;10.162;2023-05-12T02:39:34;98871.41;;;11.73;100.00
28588;BME280;15787;49.662;10.162;2023-05-12T02:42:06;98871.25;;;11.64;100.00
28588;BME280;15787;49.662;10.162;2023-05-12T02:44:41;98866.00;;;11.66;100.00
28588;BME280;15787;49.662;10.162;2023-05-12T02:47:14;98871.09;;;11.55;100.00
28588;BME280;15787;49.662;10.162;2023-05-12T02:49:47;98868.06;;;11.78;100.00
28588;BME280;15787;49.662;10.162;2023-05-12T02:52:20;98860.41;;;11.66;100.00
28588;BME280;15787;49.662;10.162;2023-05-12T02:54:54;98861.78;;;11.45;100.00
28588;BME280;15787;49.662;10.162;2023-05-12T02:57:28;98860.34;;;11.53;100.00
28588;BME280;15787;49.662;10.162;2023-05-12T03:00:07;98863.16;;;11.53;100.00
28588;BME280;15787;49.662;10.162;2023-05-12T03:02:42;98867.31;;;11.61;100.00
28588;BME280;15787;49.662;10.162;2023-05-12T03:05:16;98859.34;;;11.60;100.00
28588;BME280;15787;49.662;10.162;2023-05-12T03:07:49;98856.78;;;11.53;100.00
28588;BME280;15787;49.662;10.162;2023-05-12T03:10:22;98857.69;;;11.62;100.00
28588;BME280;15787;49.662;10.162;2023-05-12T03:12:57;98861.22;;;11.50;100.00
28588;BME280;15787;49.662;10.162;2023-05-12T03:15:31;98865.03;;;11.43;100.00
28588;BME280;15787;49.662;10.162;2023-05-12T03:18:05;98867.56;;;11.67;100.00
28588;BME280;15787;49.662;10.162;2023-05-12T03:20:38;98861.97;;;11.38;100.00
28588;BME280;15787;49.662;10.162;2023-05-12T03:23:11;98861.31;;;11.47;100.00
28588;BME280;15787;49.662;10.162;2023-05-12T03:25:44;98860.34;;;11.69;100.00
28588;BME280;15787;49.662;10.162;2023-05-12T03:28:19;98870.88;;;11.49;100.00
28588;BME280;15787;49.662;10.162;2023-05-12T03:30:55;98862.16;;;11.60;100.00
28588;BME280;15787;49.662;10.162;2023-05-12T03:33:29;98862.41;;;11.65;100.00
28588;BME280;15787;49.662;10.162;2023-05-12T03:36:02;98866.94;;;11.75;100.00
28588;BME280;15787;49.662;10.162;2023-05-12T03:38:35;98874.31;;;11.69;100.00
28588;BME280;15787;49.662;10.162;2023-05-12T03:41:09;98873.78;;;11.74;100.00
28588;BME280;15787;49.662;10.162;2023-05-12T03:43:42;98873.66;;;11.78;100.00
28588;BME280;15787;49.662;10.162;2023-05-12T03:46:17;98868.50;;;11.76;100.00
28588;BME280;15787;49.662;10.162;2023-05-12T03:48:50;98869.13;;;11.68;100.00
28588;BME280;15787;49.662;10.162;2023-05-12T03:51:23;98864.84;;;11.79;100.00
28588;BME280;15787;49.662;10.162;2023-05-12T03:53:56;98878.56;;;11.74;100.00
28588;BME280;15787;49.662;10.162;2023-05-12T03:56:29;98876.66;;;11.71;100.00
28588;BME280;15787;49.662;10.162;2023-05-12T03:59:02;98868.53;;;11.60;100.00
28588;BME280;15787;49.662;10.162;2023-05-12T04:01:36;98878.81;;;11.51;100.00
28588;BME280;15787;49.662;10.162;2023-05-12T04:04:09;98870.88;;;11.49;100.00
28588;BME280;15787;49.662;10.162;2023-05-12T04:06:42;98870.41;;;11.51;100.00
28588;BME280;15787;49.662;10.162;2023-05-12T04:09:15;98870.38;;;11.38;100.00
28588;BME280;15787;49.662;10.162;2023-05-12T04:11:48;98862.91;;;11.48;100.00
28588;BME280;15787;49.662;10.162;2023-05-12T04:14:22;98867.31;;;11.61;100.00
28588;BME280;15787;49.662;10.162;2023-05-12T04:17:13;98865.06;;;11.56;100.00
28588;BME280;15787;49.662;10.162;2023-05-12T04:19:49;98869.41;;;11.57;100.00
28588;BME280;15787;49.662;10.162;2023-05-12T04:22:23;98868.78;;;11.66;100.00
28588;BME280;15787;49.662;10.162;2023-05-12T04:24:57;98879.47;;;11.55;100.00
28588;BME280;15787;49.662;10.162;2023-05-12T04:27:30;98872.34;;;11.54;100.00
28588;BME280;15787;49.662;10.162;2023-05-12T04:30:04;98882.19;;;11.58;100.00
28588;BME280;15787;49.662;10.162;2023-05-12T04:32:41;98882.50;;;11.76;100.00
28588;BME280;15787;49.662;10.162;2023-05-12T04:35:15;98881.66;;;11.63;100.00
28588;BME280;15787;49.662;10.162;2023-05-12T04:37:48;98881.50;;;11.54;100.00
28588;BME280;15787;49.662;10.162;2023-05-12T04:40:21;98880.25;;;11.71;100.00
28588;BME280;15787;49.662;10.162;2023-05-12T04:42:55;98883.47;;;11.70;100.00
28588;BME280;15787;49.662;10.162;2023-05-12T04:45:29;98889.25;;;11.63;100.00
28588;BME280;15787;49.662;10.162;2023-05-12T04:48:03;98895.50;;;11.54;100.00
28588;BME280;15787;49.662;10.162;2023-05-12T04:50:37;98893.63;;;11.64;100.00
28588;BME280;15787;49.662;10.162;2023-05-12T04:53:09;98888.25;;;11.40;100.00
28588;BME280;15787;49.662;10.162;2023-05-12T04:55:44;98893.13;;;11.53;100.00
28588;BME280;15787;49.662;10.162;2023-05-12T04:58:18;98887.31;;;11.60;100.00
28588;BME280;15787;49.662;10.162;2023-05-12T05:00:51;98886.84;;;11.77;100.00
28588;BME280;15787;49.662;10.162;2023-05-12T05:03:26;98886.22;;;11.86;100.00
28588;BME280;15787;49.662;10.162;2023-05-12T05:05:59;98887.63;;;11.78;100.00
28588;BME280;15787;49.662;10.162;2023-05-12T05:08:32;98885.31;;;11.76;100.00
28588;BME280;15787;49.662;10.162;2023-05-12T05:11:06;98895.53;;;11.67;100.00
28588;BME280;15787;49.662;10.162;2023-05-12T05:13:39;98892.13;;;11.75;100.00
28588;BME280;15787;49.662;10.162;2023-05-12T05:16:12;98894.41;;;11.93;100.00
28588;BME280;15787;49.662;10.162;2023-05-12T05:18:47;98894.94;;;11.88;100.00
28588;BME280;15787;49.662;10.162;2023-05-12T05:21:20;98898.41;;;11.79;100.00
28588;BME280;15787;49.662;10.162;2023-05-12T05:23:53;98905.38;;;12.00;100.00
28588;BME280;15787;49.662;10.162;2023-05-12T05:26:26;98904.34;;;11.81;100.00
28588;BME280;15787;49.662;10.162;2023-05-12T05:28:59;98903.00;;;11.86;100.00
28588;BME280;15787;49.662;10.162;2023-05-12T05:31:32;98906.84;;;11.92;100.00
28588;BME280;15787;49.662;10.162;2023-05-12T05:34:07;98905.72;;;11.89;100.00
28588;BME280;15787;49.662;10.162;2023-05-12T05:36:40;98908.06;;;11.91;100.00
28588;BME280;15787;49.662;10.162;2023-05-12T05:39:13;98916.06;;;11.76;100.00
28588;BME280;15787;49.662;10.162;2023-05-12T05:41:46;98925.25;;;11.77;100.00
28588;BME280;15787;49.662;10.162;2023-05-12T05:44:20;98913.53;;;11.82;100.00
28588;BME280;15787;49.662;10.162;2023-05-12T05:46:53;98912.22;;;11.99;100.00
28588;BME280;15787;49.662;10.162;2023-05-12T05:49:29;98910.28;;;11.83;100.00
28588;BME280;15787;49.662;10.162;2023-05-12T05:52:04;98908.63;;;11.98;100.00
28588;BME280;15787;49.662;10.162;2023-05-12T05:54:38;98911.72;;;12.29;100.00
28588;BME280;15787;49.662;10.162;2023-05-12T05:57:11;98911.06;;;12.25;100.00
28588;BME280;15787;49.662;10.162;2023-05-12T05:59:45;98917.00;;;12.27;100.00
28588;BME280;15787;49.662;10.162;2023-05-12T06:02:19;98918.91;;;12.30;100.00
28588;BME280;15787;49.662;10.162;2023-05-12T06:04:55;98916.78;;;11.93;100.00
28588;BME280;15787;49.662;10.162;2023-05-12T06:07:29;98918.75;;;12.21;100.00
28588;BME280;15787;49.662;10.162;2023-05-12T06:10:03;98913.47;;;12.11;100.00
28588;BME280;15787;49.662;10.162;2023-05-12T06:12:37;98924.91;;;12.16;100.00
28588;BME280;15787;49.662;10.162;2023-05-12T06:15:11;98930.22;;;12.39;100.00
28588;BME280;15787;49.662;10.162;2023-05-12T06:17:45;98936.94;;;12.54;100.00
28588;BME280;15787;49.662;10.162;2023-05-12T06:20:20;98935.00;;;12.26;100.00
28588;BME280;15787;49.662;10.162;2023-05-12T06:22:54;98912.19;;;12.53;100.00
28588;BME280;15787;49.662;10.162;2023-05-12T06:25:27;98919.72;;;12.68;100.00
28588;BME280;15787;49.662;10.162;2023-05-12T06:28:03;98911.06;;;12.76;100.00
28588;BME280;15787;49.662;10.162;2023-05-12T06:30:39;98919.00;;;12.90;100.00
28588;BME280;15787;49.662;10.162;2023-05-12T06:33:12;98919.91;;;12.87;100.00
28588;BME280;15787;49.662;10.162;2023-05-12T06:35:46;98920.91;;;13.05;100.00
28588;BME280;15787;49.662;10.162;2023-05-12T06:38:19;98924.28;;;13.13;100.00
28588;BME280;15787;49.662;10.162;2023-05-12T06:40:52;98931.69;;;13.07;100.00
28588;BME280;15787;49.662;10.162;2023-05-12T06:43:25;98937.06;;;13.01;100.00
28588;BME280;15787;49.662;10.162;2023-05-12T06:45:59;98934.84;;;13.09;100.00
28588;BME280;15787;49.662;10.162;2023-05-12T06:48:32;98938.53;;;13.18;100.00
28588;BME280;15787;49.662;10.162;2023-05-12T06:51:06;98940.53;;;13.18;100.00
28588;BME280;15787;49.662;10.162;2023-05-12T06:53:40;98950.28;;;13.01;100.00
28588;BME280;15787;49.662;10.162;2023-05-12T06:56:12;98944.56;;;13.29;100.00
28588;BME280;15787;49.662;10.162;2023-05-12T06:58:47;98942.88;;;12.94;100.00
28588;BME280;15787;49.662;10.162;2023-05-12T07:01:20;98952.53;;;13.06;100.00
28588;BME280;15787;49.662;10.162;2023-05-12T07:03:53;98949.84;;;13.15;100.00
28588;BME280;15787;49.662;10.162;2023-05-12T07:06:28;98950.84;;;13.21;100.00
28588;BME280;15787;49.662;10.162;2023-05-12T07:09:02;98948.63;;;13.16;100.00
28588;BME280;15787;49.662;10.162;2023-05-12T07:11:35;98963.72;;;13.06;100.00
28588;BME280;15787;49.662;10.162;2023-05-12T07:14:08;98957.25;;;13.09;100.00
28588;BME280;15787;49.662;10.162;2023-05-12T07:16:40;98958.78;;;12.97;100.00
28588;BME280;15787;49.662;10.162;2023-05-12T07:19:13;98956.66;;;13.39;100.00
28588;BME280;15787;49.662;10.162;2023-05-12T07:21:48;98956.31;;;13.37;100.00
28588;BME280;15787;49.662;10.162;2023-05-12T07:24:20;98954.53;;;13.05;100.00
28588;BME280;15787;49.662;10.162;2023-05-12T07:26:53;98946.75;;;13.47;100.00
28588;BME280;15787;49.662;10.162;2023-05-12T07:29:27;98955.31;;;13.31;100.00
28588;BME280;15787;49.662;10.162;2023-05-12T07:32:00;98946.94;;;13.53;100.00
28588;BME280;15787;49.662;10.162;2023-05-12T07:34:32;98957.38;;;13.65;100.00
28588;BME280;15787;49.662;10.162;2023-05-12T07:37:07;98955.84;;;13.73;100.00
28588;BME280;15787;49.662;10.162;2023-05-12T07:39:39;98958.13;;;13.78;100.00
28588;BME280;15787;49.662;10.162;2023-05-12T07:42:12;98959.03;;;14.18;100.00
28588;BME280;15787;49.662;10.162;2023-05-12T07:44:45;98961.56;;;14.04;100.00
28588;BME280;15787;49.662;10.162;2023-05-12T07:47:18;98961.31;;;13.89;100.00
28588;BME280;15787;49.662;10.162;2023-05-12T07:49:51;98959.44;;;13.73;100.00
28588;BME280;15787;49.662;10.162;2023-05-12T07:52:25;98967.13;;;13.94;100.00
28588;BME280;15787;49.662;10.162;2023-05-12T07:54:58;98959.28;;;13.89;100.00
28588;BME280;15787;49.662;10.162;2023-05-12T07:57:31;98962.47;;;13.79;100.00
28588;BME280;15787;49.662;10.162;2023-05-12T08:00:05;98968.56;;;13.77;100.00
28588;BME280;15787;49.662;10.162;2023-05-12T08:02:43;98965.84;;;14.08;100.00
28588;BME280;15787;49.662;10.162;2023-05-12T08:05:16;98961.09;;;13.83;100.00
28588;BME280;15787;49.662;10.162;2023-05-12T08:07:51;98970.41;;;13.93;100.00
28588;BME280;15787;49.662;10.162;2023-05-12T08:10:23;98972.34;;;14.05;100.00
28588;BME280;15787;49.662;10.162;2023-05-12T08:13:00;98975.50;;;14.07;100.00
28588;BME280;15787;49.662;10.162;2023-05-12T08:15:32;98976.00;;;14.15;100.00
28588;BME280;15787;49.662;10.162;2023-05-12T08:18:05;98976.06;;;13.68;100.00
28588;BME280;15787;49.662;10.162;2023-05-12T08:20:38;98974.63;;;13.63;100.00
28588;BME280;15787;49.662;10.162;2023-05-12T08:23:12;98976.00;;;13.59;100.00
28588;BME280;15787;49.662;10.162;2023-05-12T08:25:47;98985.88;;;13.98;100.00
28588;BME280;15787;49.662;10.162;2023-05-12T08:28:23;98974.16;;;13.99;100.00
28588;BME280;15787;49.662;10.162;2023-05-12T08:30:55;98982.44;;;13.81;100.00
28588;BME280;15787;49.662;10.162;2023-05-12T08:33:28;98981.63;;;13.93;100.00
28588;BME280;15787;49.662;10.162;2023-05-12T08:36:01;98981.25;;;14.25;100.00
28588;BME280;15787;49.662;10.162;2023-05-12T08:38:36;98981.63;;;14.15;100.00
28588;BME280;15787;49.662;10.162;2023-05-12T08:41:15;98987.69;;;13.91;100.00
28588;BME280;15787;49.662;10.162;2023-05-12T08:43:51;98988.34;;;14.17;100.00
28588;BME280;15787;49.662;10.162;2023-05-12T08:46:24;98990.63;;;14.10;100.00
28588;BME280;15787;49.662;10.162;2023-05-12T08:48:58;98996.41;;;14.28;100.00
28588;BME280;15787;49.662;10.162;2023-05-12T08:51:35;98993.88;;;14.42;100.00
28588;BME280;15787;49.662;10.162;2023-05-12T08:54:12;98995.16;;;14.50;100.00
28588;BME280;15787;49.662;10.162;2023-05-12T08:56:45;98994.41;;;14.81;100.00
28588;BME280;15787;49.662;10.162;2023-05-12T08:59:22;98994.97;;;14.67;100.00
28588;BME280;15787;49.662;10.162;2023-05-12T09:01:55;99001.22;;;14.71;100.00
28588;BME280;15787;49.662;10.162;2023-05-12T09:04:30;98993.16;;;14.82;100.00
28588;BME280;15787;49.662;10.162;2023-05-12T09:07:04;99013.97;;;14.63;100.00
28588;BME280;15787;49.662;10.162;2023-05-12T09:09:41;99007.44;;;14.66;100.00
28588;BME280;15787;49.662;10.162;2023-05-12T09:12:17;99000.81;;;14.60;100.00
28588;BME280;15787;49.662;10.162;2023-05-12T09:14:58;99003.19;;;14.61;100.00
28588;BME280;15787;49.662;10.162;2023-05-12T09:17:35;98997.78;;;14.97;100.00
28588;BME280;15787;49.662;10.162;2023-05-12T09:20:09;99012.44;;;14.92;100.00
28588;BME280;15787;49.662;10.162;2023-05-12T09:23:13;99006.03;;;14.92;100.00
28588;BME280;15787;49.662;10.162;2023-05-12T09:25:57;99005.03;;;14.86;100.00
28588;BME280;15787;49.662;10.162;2023-05-12T09:28:35;99010.97;;;15.18;100.00
28588;BME280;15787;49.662;10.162;2023-05-12T09:31:16;99005.75;;;15.08;100.00
28588;BME280;15787;49.662;10.162;2023-05-12T09:33:50;99004.72;;;15.14;100.00
28588;BME280;15787;49.662;10.162;2023-05-12T09:36:24;99006.84;;;15.01;100.00
28588;BME280;15787;49.662;10.162;2023-05-12T09:38:57;99010.75;;;15.04;100.00
28588;BME280;15787;49.662;10.162;2023-05-12T09:41:33;99014.25;;;15.17;100.00
28588;BME280;15787;49.662;10.162;2023-05-12T09:44:07;99014.69;;;15.15;100.00
28588;BME280;15787;49.662;10.162;2023-05-12T09:46:41;99014.91;;;14.90;100.00
28588;BME280;15787;49.662;10.162;2023-05-12T09:49:17;99009.66;;;15.01;100.00
28588;BME280;15787;49.662;10.162;2023-05-12T09:51:50;99016.56;;;15.49;100.00
28588;BME280;15787;49.662;10.162;2023-05-12T09:54:24;99010.50;;;15.51;100.00
28588;BME280;15787;49.662;10.162;2023-05-12T09:57:01;99010.19;;;15.18;100.00
28588;BME280;15787;49.662;10.162;2023-05-12T09:59:35;99015.72;;;15.40;100.00
28588;BME280;15787;49.662;10.162;2023-05-12T10:02:12;99007.81;;;15.56;100.00
28588;BME280;15787;49.662;10.162;2023-05-12T10:04:49;99017.13;;;15.35;100.00
28588;BME280;15787;49.662;10.162;2023-05-12T10:07:24;99008.25;;;15.46;100.00
28588;BME280;15787;49.662;10.162;2023-05-12T10:10:01;99019.00;;;15.38;100.00
28588;BME280;15787;49.662;10.162;2023-05-12T10:12:37;99024.19;;;15.40;100.00
28588;BME280;15787;49.662;10.162;2023-05-12T10:15:12;99026.38;;;15.45;100.00
28588;BME280;15787;49.662;10.162;2023-05-12T10:17:45;99030.00;;;15.45;100.00
28588;BME280;15787;49.662;10.162;2023-05-12T10:20:22;99024.25;;;15.18;100.00
28588;BME280;15787;49.662;10.162;2023-05-12T10:22:56;99021.13;;;15.65;100.00
28588;BME280;15787;49.662;10.162;2023-05-12T10:25:31;99015.63;;;15.52;100.00
28588;BME280;15787;49.662;10.162;2023-05-12T10:28:06;99027.38;;;15.60;100.00
28588;BME280;15787;49.662;10.162;2023-05-12T10:30:40;99021.47;;;15.27;99.67
28588;BME280;15787;49.662;10.162;2023-05-12T10:33:14;99028.22;;;15.30;99.73
28588;BME280;15787;49.662;10.162;2023-05-12T10:35:47;99024.56;;;15.60;100.00
28588;BME280;15787;49.662;10.162;2023-05-12T10:38:20;99025.22;;;15.73;100.00
28588;BME280;15787;49.662;10.162;2023-05-12T10:40:57;99025.66;;;15.62;97.55
28588;BME280;15787;49.662;10.162;2023-05-12T10:43:38;99020.38;;;15.82;97.93
28588;BME280;15787;49.662;10.162;2023-05-12T10:46:16;99035.09;;;15.87;97.05
28588;BME280;15787;49.662;10.162;2023-05-12T10:48:53;99032.84;;;15.54;95.69
28588;BME280;15787;49.662;10.162;2023-05-12T10:51:28;99034.31;;;15.37;96.34
28588;BME280;15787;49.662;10.162;2023-05-12T10:54:03;99041.97;;;15.86;98.79
28588;BME280;15787;49.662;10.162;2023-05-12T10:56:42;99030.41;;;16.02;97.32
28588;BME280;15787;49.662;10.162;2023-05-12T11:03:14;99041.81;;;15.89;98.21
28588;BME280;15787;49.662;10.162;2023-05-12T11:05:57;99041.44;;;15.51;99.70
28588;BME280;15787;49.662;10.162;2023-05-12T11:08:31;99045.09;;;15.39;100.00
28588;BME280;15787;49.662;10.162;2023-05-12T11:12:09;99047.00;;;15.42;100.00
28588;BME280;15787;49.662;10.162;2023-05-12T11:14:44;99040.06;;;15.64;100.00
28588;BME280;15787;49.662;10.162;2023-05-12T11:17:17;99041.97;;;15.37;100.00
28588;BME280;15787;49.662;10.162;2023-05-12T11:19:52;99046.91;;;15.14;100.00
28588;BME280;15787;49.662;10.162;2023-05-12T11:22:25;99044.06;;;15.45;100.00
28588;BME280;15787;49.662;10.162;2023-05-12T11:25:07;99044.53;;;15.13;100.00
28588;BME280;15787;49.662;10.162;2023-05-12T11:27:46;99046.06;;;15.45;100.00
28588;BME280;15787;49.662;10.162;2023-05-12T11:30:20;99049.59;;;15.58;100.00
28588;BME280;15787;49.662;10.162;2023-05-12T11:32:59;99052.53;;;15.14;99.17
28588;BME280;15787;49.662;10.162;2023-05-12T11:35:35;99052.84;;;15.16;99.00
28588;BME280;15787;49.662;10.162;2023-05-12T11:38:13;99042.53;;;15.53;100.00
28588;BME280;15787;49.662;10.162;2023-05-12T11:40:47;99043.97;;;15.67;100.00
28588;BME280;15787;49.662;10.162;2023-05-12T11:43:20;99044.66;;;15.40;97.88
28588;BME280;15787;49.662;10.162;2023-05-12T11:45:53;99052.25;;;15.61;98.31
28588;BME280;15787;49.662;10.162;2023-05-12T11:48:32;99044.63;;;15.89;97.84
28588;BME280;15787;49.662;10.162;2023-05-12T11:51:06;99042.97;;;16.37;97.20
28588;BME280;15787;49.662;10.162;2023-05-12T11:53:39;99047.00;;;16.45;95.55
28588;BME280;15787;49.662;10.162;2023-05-12T11:56:17;99052.94;;;16.20;92.07
28588;BME280;15787;49.662;10.162;2023-05-12T11:58:51;99048.56;;;16.10;91.22
28588;BME280;15787;49.662;10.162;2023-05-12T12:01:24;99048.25;;;16.35;92.37
28588;BME280;15787;49.662;10.162;2023-05-12T12:03:57;99052.03;;;16.23;90.88
28588;BME280;15787;49.662;10.162;2023-05-12T12:06:42;99047.47;;;15.98;91.49
28588;BME280;15787;49.662;10.162;2023-05-12T12:09:15;99063.41;;;15.92;93.35
28588;BME280;15787;49.662;10.162;2023-05-12T12:11:48;99060.69;;;15.61;100.00
28588;BME280;15787;49.662;10.162;2023-05-12T12:14:21;99062.31;;;15.41;100.00
28588;BME280;15787;49.662;10.162;2023-05-12T12:16:54;99063.06;;;15.63;100.00
28588;BME280;15787;49.662;10.162;2023-05-12T12:19:27;99056.53;;;16.48;100.00
28588;BME280;15787;49.662;10.162;2023-05-12T12:22:01;99055.00;;;16.83;100.00
28588;BME280;15787;49.662;10.162;2023-05-12T12:24:34;99053.91;;;17.22;100.00
28588;BME280;15787;49.662;10.162;2023-05-12T12:27:09;99045.81;;;17.81;100.00
28588;BME280;15787;49.662;10.162;2023-05-12T12:29:42;99049.09;;;18.03;96.03
28588;BME280;15787;49.662;10.162;2023-05-12T12:32:14;99058.88;;;17.36;91.87
28588;BME280;15787;49.662;10.162;2023-05-12T12:34:48;99062.53;;;16.50;84.97
28588;BME280;15787;49.662;10.162;2023-05-12T12:37:22;99050.59;;;17.33;89.71
28588;BME280;15787;49.662;10.162;2023-05-12T12:39:55;99054.94;;;16.92;87.93
28588;BME280;15787;49.662;10.162;2023-05-12T12:42:27;99060.00;;;16.61;85.80
28588;BME280;15787;49.662;10.162;2023-05-12T12:45:01;99063.72;;;15.94;86.48
28588;BME280;15787;49.662;10.162;2023-05-12T12:47:35;99057.81;;;16.10;89.24
28588;BME280;15787;49.662;10.162;2023-05-12T12:50:09;99061.25;;;16.41;90.13
28588;BME280;15787;49.662;10.162;2023-05-12T12:52:44;99063.78;;;16.67;89.23
28588;BME280;15787;49.662;10.162;2023-05-12T12:55:17;99059.72;;;16.59;88.14
28588;BME280;15787;49.662;10.162;2023-05-12T12:57:50;99060.63;;;16.01;85.93
28588;BME280;15787;49.662;10.162;2023-05-12T13:00:23;99065.78;;;16.48;88.42
28588;BME280;15787;49.662;10.162;2023-05-12T13:02:57;99069.88;;;16.29;85.25
28588;BME280;15787;49.662;10.162;2023-05-12T13:05:31;99066.13;;;16.14;86.29
28588;BME280;15787;49.662;10.162;2023-05-12T13:08:06;99068.78;;;16.35;85.40
28588;BME280;15787;49.662;10.162;2023-05-12T13:10:39;99074.91;;;16.70;85.45
28588;BME280;15787;49.662;10.162;2023-05-12T13:13:12;99067.38;;;16.49;82.94
28588;BME280;15787;49.662;10.162;2023-05-12T13:15:45;99071.91;;;16.56;81.38
28588;BME280;15787;49.662;10.162;2023-05-12T13:18:18;99060.66;;;17.25;82.89
28588;BME280;15787;49.662;10.162;2023-05-12T13:20:51;99060.44;;;17.79;82.60
28588;BME280;15787;49.662;10.162;2023-05-12T13:23:26;99067.13;;;17.58;82.01